createdAt,value
2018-11-27T00:00:32.242Z,1.55
2018-11-27T00:03:02.285Z,1.82
2018-11-27T00:05:32.063Z,1.25
2018-11-27T00:08:01.064Z,1.37
2018-11-27T00:10:31.993Z,2.23
2018-11-27T00:13:00.960Z,1.00
2018-11-27T00:15:30.047Z,2.43
2018-11-27T00:17:59.054Z,1.90
2018-11-27T00:20:28.005Z,1.67
2018-11-27T00:22:57.000Z,1.77
2018-11-27T00:25:26.134Z,1.10
2018-11-27T00:27:55.025Z,1.77
2018-11-27T00:30:23.884Z,1.50
2018-11-27T00:32:52.811Z,2.40
2018-11-27T00:35:21.799Z,2.77
2018-11-27T00:37:51.001Z,1.75
2018-11-27T00:40:22.309Z,1.27
2018-11-27T00:42:51.535Z,2.30
2018-11-27T00:45:21.435Z,2.40
2018-11-27T00:47:51.346Z,1.98
2018-11-27T00:50:21.700Z,2.25
2018-11-27T00:52:50.623Z,2.05
2018-11-27T00:55:20.417Z,1.77
2018-11-27T00:57:50.590Z,2.08
2018-11-27T01:00:21.202Z,2.12
2018-11-27T01:02:50.168Z,3.23
2018-11-27T01:05:20.139Z,3.10
2018-11-27T01:07:49.073Z,3.20
2018-11-27T01:10:23.124Z,2.80
2018-11-27T01:12:52.289Z,1.93
2018-11-27T01:15:21.352Z,2.87
2018-11-27T01:17:57.379Z,2.20
2018-11-27T01:20:27.512Z,5.00
2018-11-27T01:22:56.422Z,3.10
2018-11-27T01:25:25.410Z,3.77
2018-11-27T01:27:54.387Z,2.90
2018-11-27T01:30:23.834Z,3.00
2018-11-27T01:32:52.906Z,2.45
2018-11-27T01:35:24.750Z,2.12
2018-11-27T01:37:54.743Z,2.08
2018-11-27T01:40:26.523Z,3.90
2018-11-27T01:42:56.211Z,1.75
2018-11-27T01:45:25.567Z,1.60
2018-11-27T01:47:55.187Z,2.40
2018-11-27T01:50:24.056Z,1.87
2018-11-27T01:52:52.903Z,1.42
2018-11-27T01:55:22.861Z,1.20
2018-11-27T01:57:51.879Z,1.75
2018-11-27T02:00:24.753Z,1.70
2018-11-27T02:02:54.327Z,1.82
2018-11-27T02:05:24.045Z,1.70
2018-11-27T02:07:53.075Z,1.85
2018-11-27T02:10:22.006Z,2.12
2018-11-27T02:12:52.014Z,3.20
2018-11-27T02:15:21.953Z,1.70
2018-11-27T02:17:50.817Z,1.85
2018-11-27T02:20:20.075Z,2.55
2018-11-27T02:22:48.994Z,2.75
2018-11-27T02:25:21.854Z,3.22
2018-11-27T02:27:50.789Z,3.15
2018-11-27T02:30:21.044Z,3.47
2018-11-27T02:32:49.964Z,3.70
2018-11-27T02:35:20.625Z,4.58
2018-11-27T02:37:51.739Z,4.60
2018-11-27T02:40:20.634Z,4.60
2018-11-27T02:42:49.672Z,4.20
2018-11-27T02:45:19.733Z,3.53
2018-11-27T02:47:49.612Z,5.90
2018-11-27T02:50:19.705Z,3.73
2018-11-27T02:52:48.599Z,5.43
2018-11-27T02:55:19.558Z,4.57
2018-11-27T02:57:48.576Z,3.87
2018-11-27T03:00:18.518Z,3.87
2018-11-27T03:02:47.575Z,6.73
2018-11-27T03:05:30.459Z,5.33
2018-11-27T03:07:59.353Z,5.17
2018-11-27T03:10:28.289Z,5.70
2018-11-27T03:12:57.238Z,9.85
2018-11-27T03:15:26.162Z,9.13
2018-11-27T03:17:55.072Z,9.40
2018-11-27T03:20:23.926Z,8.03
2018-11-27T03:22:52.811Z,8.50
2018-11-27T03:25:22.840Z,7.73
2018-11-27T03:27:52.812Z,9.37
2018-11-27T03:30:22.643Z,9.03
2018-11-27T03:32:51.772Z,8.70
2018-11-27T03:35:21.741Z,7.67
2018-11-27T03:37:50.974Z,8.48
2018-11-27T03:40:25.907Z,7.83
2018-11-27T03:42:54.865Z,9.30
2018-11-27T03:45:24.446Z,13.57
2018-11-27T03:47:53.422Z,10.50
2018-11-27T03:50:24.313Z,10.67
2018-11-27T03:52:53.170Z,10.87
2018-11-27T03:55:22.068Z,9.73
2018-11-27T03:57:51.054Z,11.63
2018-11-27T04:00:23.064Z,10.98
2018-11-27T04:02:55.012Z,10.83
2018-11-27T04:05:24.964Z,12.85
2018-11-27T04:07:54.092Z,13.70
2018-11-27T04:10:23.279Z,18.40
2018-11-27T04:12:52.473Z,14.47
2018-11-27T04:15:21.430Z,13.05
2018-11-27T04:17:50.331Z,14.75
2018-11-27T04:20:19.477Z,12.37
2018-11-27T04:22:48.365Z,15.07
2018-11-27T04:25:17.935Z,17.17
2018-11-27T04:27:48.036Z,15.98
2018-11-27T04:30:19.942Z,15.83
2018-11-27T04:32:49.032Z,15.80
2018-11-27T04:35:19.995Z,14.90
2018-11-27T04:37:49.125Z,17.03
2018-11-27T04:40:19.433Z,13.97
2018-11-27T04:42:48.416Z,14.23
2018-11-27T04:45:20.374Z,19.87
2018-11-27T04:47:49.289Z,21.53
2018-11-27T04:50:18.939Z,20.92
2018-11-27T04:52:47.941Z,21.10
2018-11-27T04:55:18.131Z,21.40
2018-11-27T04:57:48.849Z,22.60
2018-11-27T05:00:19.933Z,19.10
2018-11-27T05:02:48.913Z,24.43
2018-11-27T05:05:18.078Z,21.07
2018-11-27T05:07:46.998Z,21.27
2018-11-27T05:10:18.604Z,21.68
2018-11-27T05:12:47.536Z,23.73
2018-11-27T05:15:21.183Z,22.50
2018-11-27T05:17:52.318Z,21.83
2018-11-27T05:20:21.257Z,20.43
2018-11-27T05:22:50.119Z,20.63
2018-11-27T05:25:19.711Z,21.30
2018-11-27T05:27:49.639Z,17.27
2018-11-27T05:30:23.321Z,20.65
2018-11-27T05:32:52.189Z,18.60
2018-11-27T05:35:23.184Z,18.77
2018-11-27T05:37:52.239Z,15.60
2018-11-27T05:40:24.059Z,15.60
2018-11-27T05:42:56.223Z,15.28
2018-11-27T05:45:25.731Z,13.85
2018-11-27T05:47:54.629Z,14.63
2018-11-27T05:50:23.483Z,12.85
2018-11-27T05:52:52.372Z,13.20
2018-11-27T05:55:21.270Z,16.27
2018-11-27T05:57:51.611Z,13.83
2018-11-27T06:00:21.944Z,15.28
2018-11-27T06:02:52.309Z,13.80
2018-11-27T06:05:22.371Z,15.55
2018-11-27T06:07:51.332Z,16.30
2018-11-27T06:10:21.368Z,13.65
2018-11-27T06:12:50.255Z,11.77
2018-11-27T06:15:21.363Z,15.40
2018-11-27T06:17:51.780Z,14.55
2018-11-27T06:20:21.948Z,15.27
2018-11-27T06:22:57.535Z,16.23
2018-11-27T06:25:28.371Z,13.63
2018-11-27T06:28:01.233Z,15.08
2018-11-27T06:30:30.914Z,15.23
2018-11-27T06:32:59.830Z,13.18
2018-11-27T06:35:31.327Z,11.70
2018-11-27T06:38:00.207Z,14.47
2018-11-27T06:40:30.430Z,12.53
2018-11-27T06:42:59.399Z,12.40
2018-11-27T06:45:28.656Z,15.68
2018-11-27T06:47:57.590Z,13.65
2018-11-27T06:50:26.482Z,12.55
2018-11-27T06:52:55.332Z,10.90
2018-11-27T06:55:24.951Z,11.23
2018-11-27T06:57:53.901Z,12.47
2018-11-27T07:00:25.963Z,13.17
2018-11-27T07:02:55.543Z,10.70
2018-11-27T07:05:24.545Z,10.03
2018-11-27T07:07:53.468Z,12.23
2018-11-27T07:10:24.530Z,10.38
2018-11-27T07:12:54.966Z,10.60
2018-11-27T07:15:24.793Z,10.73
2018-11-27T07:17:53.689Z,9.30
2018-11-27T07:20:22.607Z,10.03
2018-11-27T07:22:51.543Z,13.97
2018-11-27T07:25:20.430Z,11.03
2018-11-27T07:27:50.525Z,16.10
2018-11-27T07:30:21.637Z,11.53
2018-11-27T07:32:50.656Z,10.37
2018-11-27T07:35:19.936Z,11.00
2018-11-27T07:37:49.115Z,9.20
2018-11-27T07:40:27.052Z,11.50
2018-11-27T07:42:58.031Z,11.00
2018-11-27T07:45:26.981Z,9.57
2018-11-27T07:47:55.907Z,11.03
2018-11-27T07:50:24.880Z,12.77
2018-11-27T07:52:53.847Z,13.87
2018-11-27T07:55:23.756Z,11.63
2018-11-27T07:57:53.689Z,11.93
2018-11-27T08:00:25.398Z,24.43
2018-11-27T08:02:55.598Z,26.37
2018-11-27T08:05:29.893Z,26.30
2018-11-27T08:07:59.192Z,23.90
2018-11-27T08:10:29.364Z,22.37
2018-11-27T08:12:58.459Z,18.50
2018-11-27T08:15:28.761Z,23.62
2018-11-27T08:17:57.960Z,20.83
2018-11-27T08:20:28.188Z,19.20
2018-11-27T08:22:57.234Z,23.25
2018-11-27T08:25:26.268Z,26.60
2018-11-27T08:27:55.218Z,22.27
2018-11-27T08:30:24.639Z,23.53
2018-11-27T08:32:54.286Z,24.03
2018-11-27T08:35:25.410Z,26.33
2018-11-27T08:37:55.510Z,24.75
2018-11-27T08:40:25.539Z,21.75
2018-11-27T08:42:54.568Z,22.90
2018-11-27T08:45:25.079Z,24.50
2018-11-27T09:19:30.460Z,24.00
2018-11-27T09:21:59.365Z,24.80
2018-11-27T09:24:28.340Z,27.83
2018-11-27T09:26:57.267Z,26.95
2018-11-27T09:29:26.155Z,25.37
2018-11-27T09:31:55.071Z,24.03
2018-11-27T09:34:24.008Z,24.77
2018-11-27T09:36:52.945Z,24.93
2018-11-27T09:39:21.824Z,25.70
2018-11-27T09:41:50.768Z,21.43
2018-11-27T09:44:19.745Z,27.60
2018-11-27T09:46:48.719Z,24.07
2018-11-27T09:49:17.585Z,21.67
2018-11-27T09:51:46.641Z,26.27
2018-11-27T09:54:15.509Z,21.03
2018-11-27T09:56:44.364Z,23.50
2018-11-27T09:59:13.228Z,27.47
2018-11-27T10:01:42.222Z,23.25
2018-11-27T10:04:11.163Z,25.95
2018-11-27T10:06:40.095Z,23.67
2018-11-27T10:09:09.739Z,23.07
2018-11-27T10:11:38.607Z,25.47
2018-11-27T10:14:07.837Z,25.37
2018-11-27T10:16:36.738Z,26.70
2018-11-27T10:19:05.649Z,27.07
2018-11-27T10:21:34.541Z,29.17
2018-11-27T10:24:03.407Z,31.90
2018-11-27T10:26:32.298Z,32.07
2018-11-27T10:29:01.324Z,31.75
2018-11-27T10:31:30.193Z,32.13
2018-11-27T10:33:59.041Z,30.05
2018-11-27T10:36:27.900Z,33.58
2018-11-27T10:39:01.013Z,37.88
2018-11-27T10:41:25.641Z,34.27
2018-11-27T10:43:54.605Z,34.67
2018-11-27T10:46:23.498Z,37.40
2018-11-27T10:48:52.455Z,30.50
2018-11-27T10:51:21.587Z,29.37
2018-11-27T10:53:50.528Z,32.03
2018-11-27T10:56:19.407Z,33.67
2018-11-27T10:58:48.329Z,26.65
2018-11-27T11:01:22.320Z,29.57
2018-11-27T11:03:51.225Z,26.03
2018-11-27T11:06:20.279Z,27.07
2018-11-27T11:08:49.179Z,30.17
2018-11-27T11:11:18.055Z,29.30
2018-11-27T11:13:46.981Z,30.35
2018-11-27T11:16:15.879Z,30.37
2018-11-27T11:18:44.787Z,28.65
2018-11-27T11:21:13.808Z,32.17
2018-11-27T11:23:42.756Z,28.53
2018-11-27T11:26:11.705Z,33.73
2018-11-27T11:28:40.672Z,34.90
2018-11-27T11:31:09.682Z,39.87
2018-11-27T11:33:38.684Z,44.40
2018-11-27T11:36:08.046Z,41.18
2018-11-27T11:38:36.996Z,36.17
2018-11-27T11:41:06.490Z,34.60
2018-11-27T11:43:35.872Z,33.73
2018-11-27T11:46:04.904Z,30.70
2018-11-27T11:48:34.112Z,28.33
2018-11-27T11:51:03.207Z,19.93
2018-11-27T11:53:32.184Z,32.77
2018-11-27T11:56:01.189Z,30.37
2018-11-27T11:58:30.143Z,26.27
2018-11-27T12:00:59.099Z,31.60
2018-11-27T12:03:27.998Z,33.00
2018-11-27T12:05:57.295Z,27.23
2018-11-27T12:08:26.273Z,25.52
2018-11-27T12:10:55.213Z,27.00
2018-11-27T12:13:24.161Z,25.80
2018-11-27T12:15:54.754Z,56.13
2018-11-27T12:18:23.765Z,37.53
2018-11-27T12:20:52.699Z,42.60
2018-11-27T12:23:21.781Z,24.80
2018-11-27T12:25:50.796Z,25.53
2018-11-27T12:28:20.067Z,24.67
2018-11-27T12:30:49.002Z,20.30
2018-11-27T12:33:17.955Z,21.70
2018-11-27T12:35:46.867Z,26.67
2018-11-27T12:38:15.757Z,31.03
2018-11-27T12:40:44.610Z,26.33
2018-11-27T12:43:13.459Z,28.27
2018-11-27T12:45:42.350Z,26.07
2018-11-27T12:48:11.604Z,25.80
2018-11-27T12:50:42.180Z,30.00
2018-11-27T12:53:16.714Z,26.57
2018-11-27T12:55:44.599Z,25.80
2018-11-27T12:58:13.501Z,28.90
2018-11-27T13:00:42.388Z,31.93
2018-11-27T13:03:11.300Z,29.90
2018-11-27T13:05:42.375Z,30.73
2018-11-27T13:08:16.482Z,41.30
2018-11-27T13:10:45.437Z,47.50
2018-11-27T13:13:14.569Z,42.13
2018-11-27T13:15:44.211Z,38.83
2018-11-27T13:18:13.161Z,35.27
2018-11-27T13:20:42.591Z,34.00
2018-11-27T13:23:11.555Z,33.53
2018-11-27T13:25:40.631Z,36.20
2018-11-27T13:28:10.880Z,36.70
2018-11-27T13:30:57.489Z,37.33
2018-11-27T13:33:28.938Z,35.97
2018-11-27T13:35:58.720Z,32.17
2018-11-27T13:38:27.577Z,36.43
2018-11-27T13:40:56.581Z,30.03
2018-11-27T13:43:28.751Z,31.87
2018-11-27T13:45:59.032Z,32.90
2018-11-27T13:48:27.991Z,30.10
2018-11-27T13:50:56.926Z,31.73
2018-11-27T13:53:25.792Z,34.73
2018-11-27T13:55:54.883Z,30.07
2018-11-27T13:58:23.734Z,36.60
2018-11-27T14:00:52.657Z,26.80
2018-11-27T14:03:21.558Z,32.00
2018-11-27T14:05:50.465Z,28.27
2018-11-27T14:08:19.407Z,27.17
2018-11-27T14:10:48.235Z,26.70
2018-11-27T14:13:17.112Z,34.03
2018-11-27T14:15:45.991Z,32.40
2018-11-27T14:18:14.856Z,31.80
2018-11-27T14:20:43.707Z,30.73
2018-11-27T14:23:12.635Z,32.23
2018-11-27T14:25:41.599Z,36.00
2018-11-27T14:28:10.786Z,38.23
2018-11-27T14:30:39.860Z,42.87
2018-11-27T14:33:08.905Z,41.70
2018-11-27T14:35:37.923Z,36.87
2018-11-27T14:38:07.377Z,32.83
2018-11-27T14:40:36.363Z,22.07
2018-11-27T14:43:05.408Z,27.07
2018-11-27T14:45:34.381Z,17.53
2018-11-27T14:48:03.235Z,16.57
2018-11-27T14:50:32.195Z,14.97
2018-11-27T14:53:01.073Z,13.63
2018-11-27T14:55:31.320Z,15.60
2018-11-27T14:58:00.237Z,16.17
2018-11-27T15:00:29.316Z,12.87
2018-11-27T15:02:58.207Z,10.87
2018-11-27T15:05:36.947Z,11.47
2018-11-27T15:08:08.230Z,11.57
2018-11-27T15:10:37.133Z,9.87
2018-11-27T15:13:06.670Z,8.53
2018-11-27T15:15:35.532Z,10.93
2018-11-27T15:18:04.479Z,11.40
2018-11-27T15:20:33.361Z,13.00
2018-11-27T15:23:02.265Z,14.93
2018-11-27T15:25:31.228Z,15.57
2018-11-27T15:28:00.097Z,19.60
2018-11-27T15:30:31.647Z,17.33
2018-11-27T15:33:01.201Z,19.93
2018-11-27T15:35:30.115Z,17.90
2018-11-27T15:37:58.981Z,14.73
2018-11-27T15:40:29.138Z,13.23
2018-11-27T15:42:58.207Z,21.13
2018-11-27T15:45:28.203Z,22.17
2018-11-27T15:47:57.202Z,25.77
2018-11-27T15:50:26.243Z,25.20
2018-11-27T15:52:55.161Z,25.50
2018-11-27T15:55:27.207Z,18.23
2018-11-27T15:57:57.853Z,19.37
2018-11-27T16:00:26.764Z,20.97
2018-11-27T16:02:55.665Z,20.70
2018-11-27T16:05:24.629Z,18.07
2018-11-27T16:07:53.504Z,15.38
2018-11-27T16:10:22.368Z,18.67
2018-11-27T16:12:51.258Z,19.23
2018-11-27T16:15:20.934Z,18.13
2018-11-27T16:17:50.781Z,13.58
2018-11-27T16:20:21.266Z,15.70
2018-11-27T16:22:51.327Z,12.70
2018-11-27T16:25:21.412Z,11.95
2018-11-27T16:27:50.376Z,11.55
2018-11-27T16:30:23.210Z,14.50
2018-11-27T16:32:52.388Z,16.00
2018-11-27T16:35:21.322Z,12.53
2018-11-27T16:37:52.204Z,11.12
2018-11-27T16:40:22.574Z,15.03
2018-11-27T16:42:51.692Z,11.22
2018-11-27T16:45:22.908Z,16.00
2018-11-27T16:47:52.696Z,14.20
2018-11-27T16:50:21.747Z,14.25
2018-11-27T16:52:50.935Z,12.80
2018-11-27T16:55:22.063Z,12.93
2018-11-27T16:57:51.672Z,15.10
2018-11-27T17:00:22.976Z,17.87
2018-11-27T17:02:55.311Z,11.83
2018-11-27T17:05:24.235Z,11.03
2018-11-27T17:07:53.210Z,12.53
2018-11-27T17:10:22.755Z,19.65
2018-11-27T17:12:52.869Z,13.22
2018-11-27T17:15:22.982Z,15.65
2018-11-27T17:17:52.171Z,13.83
2018-11-27T17:20:28.335Z,16.10
2018-11-27T17:22:58.449Z,18.77
2018-11-27T17:25:27.386Z,17.73
2018-11-27T17:27:57.626Z,13.20
2018-11-27T17:30:42.008Z,14.83
2018-11-27T17:33:16.228Z,15.63
2018-11-27T17:35:45.884Z,17.90
2018-11-27T17:38:15.100Z,21.57
2018-11-27T17:40:44.306Z,17.15
2018-11-27T17:43:13.391Z,14.83
2018-11-27T17:45:43.229Z,14.87
2018-11-27T17:48:12.336Z,13.48
2018-11-27T17:50:41.446Z,13.05
2018-11-27T17:53:10.368Z,13.43
2018-11-27T17:55:39.449Z,15.28
2018-11-27T17:58:08.490Z,14.33
2018-11-27T18:00:37.650Z,14.73
2018-11-27T18:07:46.543Z,16.05
2018-11-27T18:10:15.468Z,14.95
2018-11-27T18:12:44.348Z,13.15
2018-11-27T18:15:17.320Z,16.65
2018-11-27T18:17:46.449Z,16.65
2018-11-27T18:20:15.460Z,11.88
2018-11-27T18:22:50.686Z,11.33
2018-11-27T18:25:20.302Z,14.43
2018-11-27T18:27:50.008Z,14.73
2018-11-27T18:30:25.489Z,11.78
2018-11-27T18:32:54.391Z,8.95
2018-11-27T18:35:24.279Z,7.85
2018-11-27T18:37:53.443Z,10.43
2018-11-27T18:40:22.677Z,7.70
2018-11-27T18:42:52.377Z,9.65
2018-11-27T18:45:25.621Z,8.88
2018-11-27T18:47:54.509Z,8.90
2018-11-27T18:50:24.640Z,6.65
2018-11-27T18:52:53.523Z,7.65
2018-11-27T18:55:22.424Z,7.90
2018-11-27T18:57:51.525Z,7.05
2018-11-27T19:00:21.827Z,6.65
2018-11-27T19:02:50.994Z,5.60
2018-11-27T19:05:19.882Z,7.50
2018-11-27T19:07:48.837Z,6.12
2018-11-27T19:10:33.221Z,6.90
2018-11-27T19:13:02.451Z,9.83
2018-11-27T19:15:34.637Z,7.95
2018-11-27T19:18:06.320Z,7.67
2018-11-27T19:20:35.161Z,7.22
2018-11-27T19:23:04.562Z,6.85
2018-11-27T19:25:33.878Z,5.83
2018-11-27T19:28:04.175Z,7.30
2018-11-27T19:30:33.496Z,6.30
2018-11-27T19:33:04.812Z,6.83
2018-11-27T19:35:34.219Z,8.18
2018-11-27T19:38:03.519Z,8.50
2018-11-27T19:40:32.866Z,13.53
2018-11-27T19:43:01.718Z,7.25
2018-11-27T19:45:30.671Z,6.40
2018-11-27T19:48:00.275Z,7.40
2018-11-27T19:50:29.171Z,6.12
2018-11-27T19:53:11.768Z,6.87
2018-11-27T19:55:35.080Z,9.28
2018-11-27T19:58:04.014Z,8.25
2018-11-27T20:00:32.860Z,10.05
2018-11-27T20:03:01.722Z,8.40
2018-11-27T20:05:30.942Z,7.97
2018-11-27T20:07:59.862Z,8.68
2018-11-27T20:10:28.752Z,11.38
2018-11-27T20:12:57.608Z,6.37
2018-11-27T20:15:29.265Z,5.87
2018-11-27T20:17:58.581Z,5.15
2018-11-27T20:20:29.732Z,6.92
2018-11-27T20:22:58.874Z,4.72
2018-11-27T20:25:27.816Z,4.10
2018-11-27T20:27:56.777Z,3.30
2018-11-27T20:30:27.230Z,3.92
2018-11-27T20:33:00.265Z,4.35
2018-11-27T20:35:29.925Z,4.85
2018-11-27T20:37:59.727Z,3.52
2018-11-27T20:40:28.959Z,2.15
2018-11-27T20:42:57.991Z,2.42
2018-11-27T20:45:27.859Z,2.15
2018-11-27T20:48:00.679Z,2.35
2018-11-27T20:50:29.757Z,2.65
2018-11-27T20:52:58.621Z,2.95
2018-11-27T20:55:28.046Z,2.92
2018-11-27T20:57:58.214Z,1.82
2018-11-27T21:00:35.445Z,1.67
2018-11-27T21:03:04.892Z,2.50
2018-11-27T21:05:34.112Z,2.55
2018-11-27T21:08:03.352Z,2.37
2018-11-27T21:10:32.610Z,2.22
2018-11-27T21:13:02.258Z,1.92
2018-11-27T21:15:31.829Z,2.62
2018-11-27T21:18:01.009Z,3.60
2018-11-27T21:20:30.377Z,4.90
2018-11-27T21:23:00.427Z,8.03
2018-11-27T21:25:29.344Z,11.63
2018-11-27T21:28:13.387Z,9.83
2018-11-27T21:30:42.531Z,10.13
2018-11-27T21:33:11.504Z,7.45
2018-11-27T21:35:40.609Z,7.47
2018-11-27T21:38:09.695Z,9.93
2018-11-27T21:40:38.785Z,9.75
2018-11-27T21:43:09.137Z,7.92
2018-11-27T21:45:38.572Z,9.90
2018-11-27T21:48:08.439Z,13.72
2018-11-27T21:50:41.233Z,9.40
2018-11-27T21:53:10.374Z,7.90
2018-11-27T21:55:40.496Z,7.95
2018-11-27T21:58:10.684Z,6.15
2018-11-27T22:00:41.142Z,6.53
2018-11-27T22:03:11.061Z,5.05
2018-11-27T22:05:40.088Z,5.75
2018-11-27T22:08:09.379Z,5.83
2018-11-27T22:10:39.588Z,5.03
2018-11-27T22:13:10.368Z,5.60
2018-11-27T22:15:41.338Z,5.97
2018-11-27T22:18:11.169Z,4.75
2018-11-27T22:20:40.270Z,4.85
2018-11-27T22:23:10.070Z,4.72
2018-11-27T22:25:39.083Z,6.45
2018-11-27T22:28:09.043Z,4.10
2018-11-27T22:30:38.092Z,2.55
2018-11-27T22:33:08.298Z,2.62
2018-11-27T22:35:37.391Z,3.17
2018-11-27T22:38:07.492Z,4.40
2018-11-27T22:40:36.375Z,2.22
2018-11-27T22:43:05.912Z,2.15
2018-11-27T22:45:36.557Z,3.47
2018-11-27T22:48:06.816Z,2.50
2018-11-27T22:50:35.754Z,3.45
2018-11-27T22:53:04.728Z,2.37
2018-11-27T22:55:33.612Z,1.87
2018-11-27T22:58:02.507Z,2.17
2018-11-27T23:00:36.594Z,2.00
2018-11-27T23:03:05.541Z,2.83
2018-11-27T23:05:34.438Z,3.15
2018-11-27T23:08:03.397Z,3.47
2018-11-27T23:10:33.995Z,2.65
2018-11-27T23:13:02.988Z,2.58
2018-11-27T23:15:31.903Z,4.58
2018-11-27T23:18:00.806Z,2.58
2018-11-27T23:20:29.699Z,2.87
2018-11-27T23:23:05.488Z,2.58
2018-11-27T23:25:34.419Z,1.85
2018-11-27T23:28:03.413Z,2.00
2018-11-27T23:30:32.328Z,2.05
2018-11-27T23:33:01.404Z,1.32
2018-11-27T23:35:30.383Z,1.80
2018-11-27T23:37:59.322Z,3.10
2018-11-27T23:40:28.302Z,2.72
2018-11-27T23:42:57.184Z,2.77
2018-11-27T23:45:26.040Z,1.65
2018-11-27T23:47:54.912Z,2.65
2018-11-27T23:50:23.923Z,1.65
2018-11-27T23:52:52.786Z,2.80
2018-11-27T23:55:21.671Z,2.72
2018-11-27T23:57:51.141Z,5.45
